METAR Data
IDs: Format: Raw Decoded Include TAF

Data at: 2159 UTC 22 Sep 2020

KEGV 222155Z AUTO 27004KT 10SM CLR 24/06 A3005 RMK AO2 T02440063
KEGV 222135Z AUTO 27006KT 10SM CLR 25/06 A3005 RMK AO2 T02460057
KEGV 222115Z AUTO 25009KT 10SM CLR 25/05 A3006 RMK AO2 T02470051
KEGV 222055Z AUTO 28005G08KT 10SM CLR 25/05 A3006 RMK AO2 T02480049
KEGV 222035Z AUTO 26006KT 10SM CLR 25/06 A3006 RMK AO2 T02500061
KEGV 222015Z AUTO 00000KT 10SM CLR 25/07 A3006 RMK AO2 T02480067
KEGV 221955Z AUTO 25004KT 10SM CLR 25/07 A3007 RMK AO2 T02510069
KEGV 221935Z AUTO 30005G09KT 10SM CLR 25/05 A3007 RMK AO2 T02500051
KEGV 221915Z AUTO 31008KT 10SM CLR 25/05 A3008 RMK AO2 T02510051
KEGV 221855Z AUTO 29008KT 10SM CLR 25/06 A3009 RMK AO2 T02500056
KEGV 221835Z AUTO 29005KT 10SM CLR 25/07 A3010 RMK AO2 T02460069
KEGV 221815Z AUTO 29006G09KT 270V330 10SM CLR 24/07 A3010 RMK AO2 T02440070
KEGV 221755Z AUTO 26007KT 240V320 10SM CLR 24/08 A3010 RMK AO2 T02400079 10244 20074
KEGV 221735Z AUTO 29005KT 10SM CLR 24/09 A3011 RMK AO2 T02400094
KEGV 221715Z AUTO 33005KT 10SM CLR 24/10 A3011 RMK AO2 T02350099
KEGV 221655Z AUTO 34005KT 10SM CLR 23/10 A3011 RMK AO2 T02280100
KEGV 221635Z AUTO 35004KT 10SM CLR 22/12 A3012 RMK AO2 T02230118
KEGV 221615Z AUTO 33003KT 10SM CLR 21/12 A3013 RMK AO2 T02140117
KEGV 221555Z AUTO 28004KT 10SM CLR 20/12 A3013 RMK AO2 T02020115
KEGV 221535Z AUTO 27004KT 7SM CLR 20/12 A3013 RMK AO2 T01950123
KEGV 221515Z AUTO 28003KT 10SM CLR 19/12 A3014 RMK AO2 T01880122
KEGV 221455Z AUTO 26005KT 10SM CLR 18/12 A3014 RMK AO2 T01780122
KEGV 221435Z AUTO 29003KT 10SM CLR 17/13 A3014 RMK AO2 T01700125
KEGV 221415Z AUTO 26003KT 10SM CLR 16/12 A3014 RMK AO2 T01570122
KEGV 221355Z AUTO 28004KT 10SM CLR 15/12 A3013 RMK AO2 T01460119
KEGV 221335Z AUTO 25003KT 10SM CLR 13/12 A3013 RMK AO2 T01320116
KEGV 221315Z AUTO 23003KT 10SM CLR 11/11 A3014 RMK AO2 T01110108
KEGV 221255Z AUTO 00000KT 10SM CLR 10/10 A3014 RMK AO2 T00970097
KEGV 221235Z AUTO 00000KT 10SM SCT002 08/08 A3014 RMK AO2 T00810081
KEGV 221215Z AUTO 00000KT 1/4SM FG OVC002 08/08 A3014 RMK AO2 T00760076
KEGV 221155Z AUTO 00000KT 4SM BR CLR 08/08 A3014 RMK AO2 T00750075 10139 20071
KEGV 221135Z AUTO 00000KT 7SM CLR 08/08 A3014 RMK AO2 T00750075
KEGV 221115Z AUTO 00000KT 7SM CLR 09/09 A3013 RMK AO2 T00870087
KEGV 221055Z AUTO 00000KT 10SM CLR 09/09 A3013 RMK AO2 T00930089
KEGV 221035Z AUTO 00000KT 10SM CLR 09/09 A3013 RMK AO2 T00920086
KEGV 221015Z AUTO 00000KT 10SM CLR 10/09 A3013 RMK AO2 T01010085
KEGV 220955Z AUTO 00000KT 10SM CLR 10/08 A3013 RMK AO2 T01020081
KEGV 220935Z AUTO 00000KT 10SM CLR 11/08 A3013 RMK AO2 T01100081
KEGV 220915Z AUTO 00000KT 10SM CLR 12/08 A3012 RMK AO2 T01150083
KEGV 220855Z AUTO 23003KT 10SM CLR 12/08 A3013 RMK AO2 T01150082
KEGV 220835Z AUTO 22004KT 10SM CLR 12/09 A3013 RMK AO2 T01240085
KEGV 220815Z AUTO 20003KT 10SM CLR 13/09 A3013 RMK AO2 T01270086
KEGV 220755Z AUTO 22004KT 10SM CLR 13/09 A3013 RMK AO2 T01300086
KEGV 220735Z AUTO 23006KT 10SM CLR 13/09 A3013 RMK AO2 T01330086
KEGV 220715Z AUTO 23006KT 10SM CLR 14/09 A3013 RMK AO2 T01360086
KEGV 220655Z AUTO 22005KT 10SM CLR 14/09 A3013 RMK AO2 T01390086
KEGV 220635Z AUTO 22006KT 10SM CLR 14/09 A3013 RMK AO2 T01390086
KEGV 220615Z AUTO 22005KT 10SM CLR 14/09 A3013 RMK AO2 T01370086
KEGV 220555Z AUTO 22003KT 10SM CLR 13/09 A3013 RMK AO2 T01270085 10160 20126 402080105
KEGV 220535Z AUTO 23005KT 10SM CLR 14/09 A3013 RMK AO2 T01360086
KEGV 220515Z AUTO 22005KT 10SM CLR 14/09 A3014 RMK AO2 T01430088
KEGV 220455Z AUTO 21005KT 10SM CLR 14/09 A3014 RMK AO2 T01430090
KEGV 220435Z AUTO 21005KT 10SM CLR 15/09 A3014 RMK AO2 T01470091
KEGV 220415Z AUTO 23006KT 10SM CLR 15/09 A3014 RMK AO2 T01500094
KEGV 220355Z AUTO 22006KT 10SM CLR 15/10 A3014 RMK AO2 T01520096
KEGV 220335Z AUTO 22005KT 10SM CLR 15/10 A3013 RMK AO2 T01520099
KEGV 220315Z AUTO 21006KT 10SM CLR 15/10 A3014 RMK AO2 T01520101
KEGV 220255Z AUTO 21006KT 10SM CLR 15/10 A3014 RMK AO2 T01530103
KEGV 220235Z AUTO 21005KT 10SM SCT110 15/11 A3014 RMK AO2 T01530105
KEGV 220215Z AUTO 22005KT 10SM SCT110 16/11 A3014 RMK AO2 T01550105
KEGV 220155Z AUTO 21004KT 10SM SCT090 SCT120 16/11 A3014 RMK AO2 T01550105
KEGV 220135Z AUTO 20003KT 10SM OVC090 16/11 A3015 RMK AO2 T01600106
KEGV 220115Z AUTO 21004KT 10SM OVC100 16/11 A3014 RMK AO2 T01600107
KEGV 220055Z AUTO 21005KT 10SM BKN100 BKN120 16/11 A3013 RMK AO2 T01600107
KEGV 220035Z AUTO 21005KT 10SM BKN100 BKN120 16/11 A3013 RMK AO2 T01590110
KEGV 220015Z AUTO 21004KT 10SM SCT120 16/11 A3013 RMK AO2 T01590112
KEGV 212355Z AUTO 22007KT 10SM SCT110 15/12 A3013 RMK AO2 T01530116 10208 20151
KEGV 212335Z AUTO 18011G19KT 10SM -RA SCT034 SCT060 BKN070 15/12 A3009 RMK AO2 T01530117
KEGV 212315Z AUTO 15006KT 10SM RA SCT060 BKN070 OVC100 16/12 A3012 RMK AO2 T01570116
KEGV 212255Z AUTO 19005KT 10SM BKN100 OVC110 16/11 A3015 RMK AO2 T01630111
KEGV 212235Z AUTO 20006KT 10SM -RA SCT070 BKN090 OVC120 18/11 A3017 RMK AO2 T01750108
KEGV 212215Z AUTO 23008KT 10SM BKN090 BKN110 19/09 A3015 RMK AO2 T01870094
KEGV 212155Z AUTO 18008KT 10SM CLR 20/09 A3012 RMK AO2 T01950094
KEGV 212135Z AUTO 19009G15KT 10SM CLR 20/10 A3012 RMK AO2 T02030096
KEGV 212115Z AUTO 18007KT 160V220 10SM CLR 21/09 A3012 RMK AO2 T02070092
KEGV 212055Z AUTO 20010G15KT 10SM CLR 21/09 A3013 RMK AO2 T02050092
KEGV 212035Z AUTO 18010G16KT 10SM CLR 20/09 A3013 RMK AO2 T02030089
KEGV 212015Z AUTO 22005KT 10SM CLR 19/09 A3014 RMK AO2 T01910088
KEGV 211955Z AUTO 21005G17KT 10SM CLR 19/09 A3015 RMK AO2 T01920085
KEGV 211935Z AUTO 19009G16KT 10SM CLR 20/09 A3015 RMK AO2 T02040088
KEGV 211915Z AUTO 20008KT 160V240 10SM CLR 20/09 A3016 RMK AO2 T02020087
KEGV 211855Z AUTO 20008G16KT 170V230 10SM CLR 20/09 A3016 RMK AO2 T02010085
KEGV 211835Z AUTO 20006KT 160V230 10SM CLR 20/09 A3017 RMK AO2 T01980088
KEGV 211815Z AUTO 20007KT 10SM SCT120 19/08 A3018 RMK AO2 T01860080
KEGV 211755Z AUTO 21010G17KT 150V240 10SM CLR 20/09 A3019 RMK AO2 T01980085 10198 20105
KEGV 211735Z AUTO 21011G15KT 170V230 10SM CLR 19/08 A3020 RMK AO2 T01860078
KEGV 211715Z AUTO 21007G16KT 10SM CLR 19/08 A3020 RMK AO2 T01850079
KEGV 211655Z AUTO 21011G15KT 10SM CLR 18/07 A3021 RMK AO2 T01750070
KEGV 211635Z AUTO 20010G18KT 10SM CLR 18/07 A3021 RMK AO2 T01750068
KEGV 211615Z AUTO 22007G17KT 10SM CLR 17/07 A3022 RMK AO2 T01710066
KEGV 211555Z AUTO 22009G18KT 10SM CLR 17/06 A3022 RMK AO2 T01700064
KEGV 211535Z AUTO 22011G18KT 180V250 10SM CLR 17/06 A3023 RMK AO2 T01650055
KEGV 211515Z AUTO 21009G14KT 160V240 10SM CLR 16/05 A3023 RMK AO2 T01630054
KEGV 211455Z AUTO 21007G15KT 180V240 10SM CLR 16/05 A3023 RMK AO2 T01560047
KEGV 211435Z AUTO 22009G14KT 170V240 10SM CLR 15/05 A3024 RMK AO2 T01480048
KEGV 211415Z AUTO 21006KT 10SM CLR 14/04 A3024 RMK AO2 T01390044
KEGV 211355Z AUTO 19007KT 10SM CLR 13/04 A3024 RMK AO2 T01310041
KEGV 211335Z AUTO 19005KT 10SM CLR 12/04 A3025 RMK AO2 T01210042
KEGV 211315Z AUTO 19004KT 10SM CLR 11/04 A3025 RMK AO2 T01140042
KEGV 211255Z AUTO 18004KT 10SM CLR 11/04 A3025 RMK AO2 T01050040
KEGV 211235Z AUTO 16004KT 10SM CLR 11/04 A3025 RMK AO2 T01070038
KEGV 211215Z AUTO 18003KT 10SM CLR 11/04 A3025 RMK AO2 T01100037
KEGV 211155Z AUTO 17004KT 10SM CLR 11/04 A3025 RMK AO2 T01110035 10121 20111
KEGV 211135Z AUTO 18005KT 10SM CLR 12/04 A3025 RMK AO2 T01150035
KEGV 211115Z AUTO 20004KT 10SM CLR 11/04 A3025 RMK AO2 T01130036
KEGV 211055Z AUTO 19004KT 10SM CLR 12/04 A3025 RMK AO2 T01150037
KEGV 211035Z AUTO 20003KT 10SM CLR 12/04 A3025 RMK AO2 T01150038
KEGV 211015Z AUTO 19003KT 10SM CLR 12/04 A3025 RMK AO2 T01160040